Ships in port

Last updated: 22-04-2019 23:00

Ship name Call sign IMO Agent Date Time Berth Arrived From Purpose of call Cargo Loaded in/for Homeport ETD Date ETD Time GT Deadweight Width (BR) DR arr. Length (LOA)
ARCTIC HUNTER OUWK2 7719832 O.S. Energy GmbH 22-04-2019 21:20 51 OFFSHORE, NORTH SEA Crew change/Provion/Bunkers Esbjerg 25-04-2019 22:22 453 415 9,0 3,7 40,6
WORLD MISTRAL OWJT2 9681302 World Marine Offshore A/S 22-04-2019 21:10 4 OFFSHORE, NORTH SEA Passenger call Passengers Esbjerg 23-04-2019 07:22 163 0 9,5 2,1 23,7
MO3 MAKX9 9798650 Blue Water Shipping A/S 22-04-2019 21:05 2 DK OFFSHORE INSTALLATIONS Passenger call Passengers Scarborough 23-04-2019 12:22 710 0 9,5 2,1 25,0
HAVILA HEROY LCCC 9455832 Total E&P Danmark A/S 22-04-2019 20:50 504 DK OFFSHORE INSTALLATIONS Discharge/load Offshore cargo FOSNAVÅG 23-04-2019 18:00 3062 4100 17,6 5,3 80,4
ARRIVER OWKJ2 9669005 Northern Offshore Services A/S 22-04-2019 18:15 24 DK OFFSHORE INSTALLATIONS Passenger call Passengers ESBJERG 23-04-2019 07:22 131 55 8,0 2,1 22,0
CHANNEL CHIEFTAIN IX MAKS5 9799290 Blue Water Shipping A/S 22-04-2019 17:45 2 DK OFFSHORE INSTALLATIONS Passenger call Passengers WEYMOUTH 23-04-2019 07:22 149 0 11,2 2,1 24,9
DJURS WIND OZAD2 9657569 Ørsted Horns Rev 2 A/S 22-04-2019 17:30 24 DK OFFSHORE INSTALLATIONS Passenger call Passengers GRENÅ 23-04-2019 04:22 117 22 5,9 2,1 25,1
ELISABETH M OXRF2 4400208 KEM-Offshore ApS 22-04-2019 17:15 21 DK OFFSHORE INSTALLATIONS Passenger call Passengers ESBJERG 23-04-2019 07:22 66 0 4,9 2,1 20,8
ORKAMA M OZBO2 9999999 KEM-Offshore ApS 22-04-2019 17:10 21 DK OFFSHORE INSTALLATIONS Passenger call Passengers ESBJERG 23-04-2019 07:22 74 0 4,9 2,1 22,4
SC SAPPHIRE MCQL6 9999999 North Sea Hagland Shipbrokers ApS. 22-04-2019 17:05 4 OTHER DENMARK Passenger call Passengers 23-04-2019 07:22 91 0 7,0 2,1 24,0
ARCTIC ROCK PBUW 9650901 Blue Water Shipping A/S 22-04-2019 16:40 603 Foynes (IEFOV) Load Wind turbines URK 23-04-2019 22:22 2989 3000 14,8 5,0 92,2
BBC BERGEN V2EP8 9437153 Blue Water Shipping A/S 22-04-2019 14:35 601 Ferrol Load Wind turbines SAINT JOHN*S 22-04-2019 22:22 6310 8000 16,5 5,5 128,5
VESTKYSTEN OXPO 8516885 Fiskeristyrelsen / Udenrigsministeriet 22-04-2019 11:45 310 Thyborøn Crew change/Provion/Bunkers THYBORØN 23-04-2019 22:22 657 126 10,0 4,5 49,9
MO1 2HCP9 9999999 Dantysk Sandbank Offshore Wind GmbH & Co. KG 22-04-2019 11:30 3 DK OFFSHORE INSTALLATIONS Passenger call Passengers SCARBOROUGH 23-04-2019 04:22 71 0 9,5 2,1 25,0
ISLAND CENTURION 3YHG 9579470 Blue Water Shipping A/S 22-04-2019 11:30 113 DK OFFSHORE INSTALLATIONS Load Drill chemicals AALESUND 25-04-2019 22:22 6397 4788 20,0 5,9 93,0
VESTVIND 9750579 Jutlandia Terminal A/S 22-04-2019 08:15 806 Nakskov Discharge Wind turbines St. Johns 24-04-2019 22:22 7175 10238 25,0 4,7 130,0
MANOR VENTURE MAWI6 9828558 Blue Water Shipping A/S 22-04-2019 05:45 84 OTHER DENMARK Shelter PORTLAND 25-04-2019 15:22 159 0 10,9 5,0 25,0
MHO GURLI OXJL2 9852509 MH-O & Co A/S 22-04-2019 05:40 84 Grimsby Repair JUELSMINDE 22-04-2019 18:22 365 112 10,3 1,6 38,6
EURUS EXPRESS OXGO2 9122978 NorSea Group Denmark A/S 21-04-2019 21:45 115 DK OFFSHORE INSTALLATIONS Discharge/load Offshore cargo FREDERICIA 23-04-2019 22:22 3171 4170 19,7 4,8 83,7
ARK GERMANIA OZHJ2 9609952 DFDS A/S 21-04-2019 15:15 814 Immingham Discharge/load Trailers København 22-04-2019 21:30 33313 24485 33,2 6,3 195,2
BOOSTER OZLS2 9646156 Northern Offshore Services A/S 21-04-2019 11:45 3 DK OFFSHORE INSTALLATIONS Passenger call Passengers FREDERICIA 23-04-2019 07:22 118 55 7,0 2,1 21,0
COUGAR J8B5008 8120478 Niels Winther Maritime ApS 21-04-2019 11:20 310 GDYNIA Crew change/Provion/Bunkers Kingstown 23-04-2019 22:22 244 0 9,2 4,0 32,1
KEY WEST ZDPF7 9020429 Blue Water Shipping A/S 21-04-2019 09:35 103 Grindavík Discharge Fish oil GIBRALTAR 25-04-2019 16:22 2634 3741 14,4 6,5 90,0
SEAJACKS SCYLLA 3FSA3 9698939 Blue Water Shipping A/S 21-04-2019 05:40 76 DK OFFSHORE INSTALLATIONS Demobilisation Panama 30-04-2019 23:55 23641 18907 50,0 8,8 139,0
SCHOKLAND PBWZ 9431599 Blue Water Shipping A/S 21-04-2019 01:45 118 Newcastle-Upon-Tyne (GBNCL) Load Wind turbines DELFZIJL/EEMSHAVEN 23-04-2019 22:22 2702 4243 13,8 6,0 90,0
HUNTER II HP5565 8731459 Niels Winther Maritime ApS 20-04-2019 23:50 308 Den Helder Shelter Panama 30-04-2019 22:22 102 0 6,0 3,1 29,5
ALBATROS HO 4111 Niels Winther Maritime ApS 20-04-2019 23:40 308 Den Helder Shelter Panama 30-04-2019 22:22 81 0 6,4 3,2 23,0
NORDSØEN OXGD 6804408 Nordsøen Offshore PS 20-04-2019 17:45 52 OTHER DENMARK Repair ESBJERG 24-04-2019 22:22 475 0 10,0 4,1 52,9
EEMS DUNDEE PCPU 9658109 Blue Water Shipping A/S 20-04-2019 11:30 117 Hamburg Load Blades (vindmøllevinger) HARLINGEN 23-04-2019 22:22 5198 6550 16,1 5,0 108,0
FREYJA 9HCD6 7392610 Niels Winther & CO Skibsekspedition ApS 20-04-2019 04:45 69 Other ports, Norway Load Fish oil VALLETTA 23-04-2019 19:00 1665 2200 12,5 4,8 77,1
KEM 1 OWQN2 9750866 KEM-Offshore ApS 17-04-2019 18:00 4 DK OFFSHORE INSTALLATIONS Passenger call Passengers Esbjerg 23-04-2019 07:22 127 18 7,5 2,1 26,5
ESVAGT BETA OUJM2 8817746 Esvagt A/S 17-04-2019 07:05 302 DK OFFSHORE INSTALLATIONS Crew change/Provion/Bunkers ESBJERG 23-04-2019 00:05 2360 1157 14,6 5,4 76,6
ISLAND DILIGENCE LAVG7 9759903 Niels Winther & CO Skibsekspedition ApS 17-04-2019 01:05 509 DK OFFSHORE INSTALLATIONS Demobilisation STAVANGER 23-04-2019 12:22 4764 4200 18,5 5,0 86,0
WEM 1 MCPB6 9831957 Niels Winther Maritime ApS 16-04-2019 20:30 4 DK OFFSHORE INSTALLATIONS Passenger call Passengers SUNDERLAND 23-04-2019 07:22 107 0 8,0 2,1 27,4
SOFIA KAUL (E 41) OVPT 9999999 KAUL ApS 16-04-2019 06:50 12 OTHER DENMARK Discharge Shrimps Esbjerg 22-04-2019 21:35 79 0 5,8 2,5 20,0
BOA SUB C LAGE8 9275153 Blue Water Shipping A/S 16-04-2019 00:30 107 Bremerhaven Repair TRONDHEIM 23-04-2019 22:22 16562 12036 30,6 8,0 138,5
MHO ESBJERG OXIG2 9852511 MH-O & Co A/S 15-04-2019 05:40 85 Hvide Sande Repair JUELSMINDE 30-04-2019 22:22 365 0 10,3 1,5 38,6
BLUE ARIES OWRC2 8401963 North Sea Hagland Shipbrokers ApS. 14-04-2019 16:20 203 Cuxhaven Await orders FÅBORG 30-04-2019 23:59 2887 2903 17,6 5,0 75,4
WIND SERVER OWLB2 9670793 Ziton A/S 13-04-2019 17:00 201 London Discharge Aarhus 28-04-2019 22:22 6567 1500 32,6 5,5 79,3
BLUE ORCA WDG8787 9670341 Jutlandia Terminal A/S 11-04-2019 10:30 401 OTHER DENMARK Load Chemicals Galliano, LA 30-04-2019 22:22 7115 5065 18,3 6,5 94,8
FOB SWATH 1 OYCE2 9579078 Niels Winther & CO Skibsekspedition ApS 09-04-2019 23:35 53 Helgoland I. Crew change/Provion/Bunkers THYBORØN 30-04-2019 19:00 155 70 10,0 2,2 27,0
WIND SUPPLIER OWBZ2 9566148 Ørsted Horns Rev 2 A/S 07-04-2019 18:30 24 DK OFFSHORE INSTALLATIONS Passenger call Passengers ESBJERG 23-04-2019 04:22 170 0 6,9 2,1 32,2
WILHELMINA (E 78) OUSS 8718811 Fiskeriselskabet Cardium A/S 07-04-2019 18:00 62 OTHER DENMARK Discharge Bivalves (muslinger) ESBJERG 23-04-2019 19:22 283 316 10,0 2,2 40,2
ISLAND PATRIOT LMWS 9325738 Copco A/S 07-04-2019 15:15 710 DK OFFSHORE INSTALLATIONS Discharge/load Offshore equipment ÅLESUND 30-04-2019 20:22 5800 4843 19,2 6,5 86,2
PACIFIC OSPREY 5BUF3 9621704 Swire Blue Ocean 07-04-2019 00:40 111 Rotterdam Demobilisation Limassol 01-10-2019 15:22 24586 13155 49,0 5,5 161,3
LYØ (MHV 904) OVLD 219000161 Lokal Støtte Element Varde 06-04-2019 21:05 307 OTHER DENMARK Environmental protection Esbjerg 30-04-2019 22:22 100 0 5,6 3,6 27,2
ACHIEVER OZFS2 9634127 Northern Offshore Services A/S 03-04-2019 19:30 85 Den Helder Repair SKAGEN 30-04-2019 22:22 101 25 7,6 1,4 18,6
FOB SWATH 4 OUWZ2 9672947 Niels Winther & CO Skibsekspedition ApS 02-04-2019 13:30 53 OTHER DENMARK Repair Fredericia 30-04-2019 22:22 243 0 10,6 2,4 24,8
STATHAV 9 FTJ1312 9999999 Nordic Marine Oil A/S 01-04-2019 00:05 14 Esbjerg Bunker another vessel KØBENHAVN 30-04-2019 23:55 19 0 4,3 1,5 12,4
CICALA MFBZ4 8891443 M/V ST. CICALA / John Cefferty 01-04-2019 00:05 60 Esbjerg Temporary laid up MANCHESTER 30-04-2019 23:55 270 0 8,5 1,5 30,7
KIRSTEN GULLEV OU5826 9999999 Nordic Marine Oil A/S 01-04-2019 00:05 14 OTHER DENMARK Bunker another vessel ESBJERG 30-04-2019 23:55 21 70 4,3 1,5 14,4
FØNIKS SUPPORTER OUBJ2 8661020 Bunker One A/S 01-04-2019 00:05 7 Esbjerg Bunker another vessel københavn 30-04-2019 23:55 226 0 9,0 1,5 25,2
STATHAV 22 OWGA2 9999999 Nordic Marine Oil A/S 01-04-2019 00:05 14 Esbjerg Bunker another vessel Skagen 30-04-2019 23:55 131 0 6,5 3,5 27,4
SVITZER HELIOS OWLX2 7321659 EM. Z. Svitzer A/S 01-04-2019 00:05 307 Esbjerg Towing ESBJERG 30-04-2019 23:55 304 650 9,8 4,7 32,9
SOUNDLINK OXFT2 9999999 B B Towing og Diving A/S 01-04-2019 00:05 65 OTHER DENMARK Towing Esbjerg 30-04-2019 23:55 30 0 4,2 1,5 13,0
FENJA OYIQ 9189378 Molslinjen A/S 01-04-2019 00:05 301 Nordby Havn, Fanø Passenger call Passengers - cars ESBJERG 30-04-2019 23:55 751 230 13,8 2,5 49,9
MENJA OYIU 9189380 Molslinjen A/S 01-04-2019 00:05 209 Nordby Havn, Fanø Passenger call Passengers - cars ESBJERG 30-04-2019 23:55 751 230 13,8 2,5 49,9
SONDERHO OYVH 8946779 Molslinjen A/S 01-04-2019 00:05 209 Nordby Havn, Fanø Passenger call Passengers ESBJERG 30-04-2019 23:55 93 30 6,0 1,5 25,0
SIGYN OZHB2 9114361 EM. Z. Svitzer A/S 01-04-2019 00:05 306 OTHER DENMARK Towing Kalundborg 30-04-2019 23:55 485 311 10,8 5,0 33,8
BLUE ANTARES OXJJ6 8401949 North Sea Hagland Shipbrokers ApS. 31-03-2019 08:05 203 Eemshaven (NLEEM) Crew change/Provion/Bunkers Faaborg 20-04-2019 22:22 2887 2800 18,5 5,2 76,4
MARGRETHE M OVOR2 9999999 KEM-Offshore ApS 21-03-2019 22:10 21 OTHER DENMARK Passenger call Passengers ESBJERG 23-04-2019 22:22 49 0 5,0 2,0 19,8
BIGORANGE XVIII C6LD3 8311314 Blue Water Shipping A/S 21-03-2019 07:40 501 DK OFFSHORE INSTALLATIONS Await orders NASSAU 30-04-2019 23:55 3719 3424 18,0 5,0 76,1
RAN XPKY 7043829 Thor P/F Ltd. 18-03-2019 11:20 88 Thorshavn Temporary laid up THORSHAVN 30-04-2019 23:59 1100 1072 11,0 5,1 60,1
ESVAGT DANA OWGN2 9787467 Esvagt A/S 16-03-2019 17:40 206 OTHER DENMARK Crew change/Provion/Bunkers Esbjerg 30-04-2019 20:22 3808 1000 15,2 5,6 89,8
SURE SHAMAL 2EAP3 9614581 Niels Winther Maritime ApS 07-03-2019 13:00 85 DK OFFSHORE INSTALLATIONS Passenger call Passengers Newcastle upon Tyne 30-04-2019 07:22 126 24 10,4 2,2 25,8
DI-JE (E 61) OWFZ 5128062 Partsrederiet E 61 Di-Je 03-02-2019 17:30 12 OTHER DENMARK Discharge Shrimps ESBJERG 22-04-2019 19:22 48 0 6,5 2,5 20,0
HEIMDAL OXQN2 9999999 KEM-Offshore ApS 10-10-2018 14:00 21 DK OFFSHORE INSTALLATIONS Passenger call Passengers ESBJERG 30-04-2019 07:22 19 10 5,0 1,5 16,1
MADOG V4DR 6615467 Malta Towage Limited 14-09-2018 14:00 89 Esbjerg Temporary laid up BASSETERRE - ST KITTS 30-04-2019 23:55 185 0 7,2 3,7 25,7
KURBERG OW2361 8600064 Thor P/F Ltd. 16-07-2018 18:35 88 Other ports, Færø Islands Temporary laid up Torshavn 31-12-2019 23:55 488 488 8,9 3,5 38,6
TORSVIK OZ2029 7807316 Thor P/F Ltd. 13-07-2018 09:30 88 Las Palmas Temporary laid up Hosvik 31-12-2019 23:55 370 0 8,5 3,6 39,2
COLGA 9V9536 8751473 Dixstone Holding LtD 24-05-2018 06:22 78 OTHER DENMARK Repair Singapore 30-04-2019 23:59 9352 0 86,3 9,8 74,7
SALLING OUIG2 7431571 Salling Offshore-Service ApS 21-05-2018 18:55 59 OTHER DENMARK Crew change/Provion/Bunkers Esbjerg 30-04-2019 23:22 370 300 7,2 4,6 37,9
MAERSK GIANT OU2465 8415768 Blue Water Shipping A/S 10-11-2016 11:00 84 OTHER DENMARK Temporary laid up SVENDBORG 30-04-2019 23:59 16325 0 95,6 8,2 80,8
DIGI OVXM 9999999 Esbjerg Bedding ApS 31-01-2015 22:10 66 Hvide Sande Shelter LEMVIG 31-12-2019 23:59 29 0 4,2 1,0 15,5